Aviation weather information 2022-12-07 16:20 UTC

TAF(FCEO32)
FCEO32 EETN 071300
TAF EEKA 071300Z 0714/0720 10008KT 2000 SN OVC007 TEMPO
     0714/0717 1200 +SHSN BKN004 BKN010 SCT013CB PROB30 TEMPO
     0714/0717 -FZDZ TEMPO 0717/0720 SCT013CB BKN015=
FCEO32 EETN 071500
TAF EEKE 071500Z 0716/0722 12008KT 3000 SN BKN005 OVC015 TEMPO
     0716/0718 1200 +SHSN BR BKN003 BKN010 SCT013CB=

TAF(FTEO31)
FTEO31 EETN 071100
TAF EETN 071130Z 0712/0812 12008KT 5000 SN SCT008 BKN025 TEMPO
     0712/0719 1500 +SN BKN004 OVC015 TEMPO 0719/0806 3000 SN BKN010
     BECMG 0806/0808 VRB02KT PROB40 TEMPO 0806/0809 1000 +SN BR
     OVC003 BECMG 0810/0812 23010KT=

TAF(FTEO33)
FTEO33 EEEI 071100
TAF EEEI 071130Z 0712/0812 11007KT 5000 FEW005 BKN020 TEMPO
     0712/0715 1500 SN SCT005 BKN015 TEMPO 0715/0721 1000 +SN BKN004
     OVC015 TEMPO 0721/0805 3000 SN BKN003 OVC010 PROB30 TEMPO
     0805/0809 1500 BR SN BKN008 BECMG 0808/0810 21008KT= 

Hoiatus(ADEO31)
ADEO31 EETN 070055
HOIATUS 1 TALLINNA LENNUVALJA KOHTA KEHTIB 070300/072300
VAADELDAKSE LUMESADU EI MUUTU=

AD-WRNG(ADEO31)
ADEO31 EETN 070056
EETN AD WRNG 1 VALID 070100/072100
SN OBS NC=

AD-WRNG(ADEO32)
ADEO32 EETN 071317
EEKE AD WRNG 4 VALID 071320/080300
SN OBS INTSF=
ADEO32 EETN 071316
EEKE AD WRNG 3 VALID 071315/080300
CNL AD WRNG 1 071300/080300=
ADEO32 EETN 071305
EEKE AD WRNG 2 VALID 071500/071900
AIR T MS00 FCST=
ADEO32 EETN 071250
EEKE AD WRNG 1 VALID 071300/080300
SN OBS INSF=
ADEO32 EETN 070630
EEPU AD WRNG 1 VALID 070630/071900
SN OBS INTSF=
ADEO32 EETN 070624
EETU AD WRNG 1 VALID 070625/071800
SN OBS INTSF=
ADEO32 EETN 070440
EEKA AD WRNG 1 VALID 070500/072300
SN OBS INTSF=

Weather observation (METAR/SPECI)
SPECI EETN 071602Z 11007KT 4300 SN BKN028 OVC036 M04/M05 Q1002=
METAR EEEI 071550Z 10006KT 3700 SN FEW007 BKN026 M03/M04 Q1002
NOSIG=
METAR EETU 071620Z AUTO 12009KT 2500 -SN ///028/// M05/M06 Q1003=
METAR EEPU 071620Z AUTO 11006KT 4300 -SN FEW009/// BKN023///
OVC027/// M04/M05 Q1001=
METAR EEKE 071550Z 13007KT 5000 SN SCT009 BKN032 00/M00 Q0999=
METAR EEKA 071550Z 09005KT 2200 SN BKN004 OVC016 M02/M02 Q1001=